sensor_id;sensor_type;location;lat;lon;timestamp;P1;durP1;ratioP1;P2;durP2;ratioP2
12151;SDS011;6139;51.274;7.128;2022-07-31T00:00:33;5.15;;;2.65;;
12151;SDS011;6139;51.274;7.128;2022-07-31T00:01:34;3.88;;;3.20;;
12151;SDS011;6139;51.274;7.128;2022-07-31T00:02:36;2.70;;;2.50;;
12151;SDS011;6139;51.274;7.128;2022-07-31T00:03:37;3.53;;;2.80;;
12151;SDS011;6139;51.274;7.128;2022-07-31T00:04:38;3.30;;;3.00;;
12151;SDS011;6139;51.274;7.128;2022-07-31T00:05:39;3.40;;;3.08;;
12151;SDS011;6139;51.274;7.128;2022-07-31T00:06:41;3.97;;;3.00;;
12151;SDS011;6139;51.274;7.128;2022-07-31T00:07:43;4.45;;;2.75;;
12151;SDS011;6139;51.274;7.128;2022-07-31T00:08:45;3.13;;;2.83;;
12151;SDS011;6139;51.274;7.128;2022-07-31T00:09:48;4.57;;;3.30;;
12151;SDS011;6139;51.274;7.128;2022-07-31T00:10:51;3.40;;;2.85;;
12151;SDS011;6139;51.274;7.128;2022-07-31T00:11:52;3.78;;;2.83;;
12151;SDS011;6139;51.274;7.128;2022-07-31T00:12:54;5.32;;;3.33;;
12151;SDS011;6139;51.274;7.128;2022-07-31T00:13:55;5.00;;;3.20;;
12151;SDS011;6139;51.274;7.128;2022-07-31T00:14:57;3.22;;;2.75;;
12151;SDS011;6139;51.274;7.128;2022-07-31T00:15:58;3.20;;;2.80;;
12151;SDS011;6139;51.274;7.128;2022-07-31T00:17:00;3.25;;;2.50;;
12151;SDS011;6139;51.274;7.128;2022-07-31T00:18:01;2.95;;;2.70;;
12151;SDS011;6139;51.274;7.128;2022-07-31T00:19:03;3.60;;;2.67;;
12151;SDS011;6139;51.274;7.128;2022-07-31T00:20:05;4.00;;;2.60;;
12151;SDS011;6139;51.274;7.128;2022-07-31T00:21:08;3.88;;;2.97;;
12151;SDS011;6139;51.274;7.128;2022-07-31T00:22:09;4.10;;;2.65;;
12151;SDS011;6139;51.274;7.128;2022-07-31T00:23:12;2.92;;;2.65;;
12151;SDS011;6139;51.274;7.128;2022-07-31T00:24:13;2.60;;;2.40;;
12151;SDS011;6139;51.274;7.128;2022-07-31T00:25:15;3.33;;;2.63;;
12151;SDS011;6139;51.274;7.128;2022-07-31T00:26:19;3.00;;;2.67;;
12151;SDS011;6139;51.274;7.128;2022-07-31T00:27:21;4.03;;;2.65;;
12151;SDS011;6139;51.274;7.128;2022-07-31T00:28:22;6.30;;;3.13;;
12151;SDS011;6139;51.274;7.128;2022-07-31T00:29:24;3.05;;;2.58;;
12151;SDS011;6139;51.274;7.128;2022-07-31T00:30:26;3.00;;;2.55;;
12151;SDS011;6139;51.274;7.128;2022-07-31T00:31:28;4.63;;;2.80;;
12151;SDS011;6139;51.274;7.128;2022-07-31T00:32:29;3.97;;;2.88;;
12151;SDS011;6139;51.274;7.128;2022-07-31T00:33:32;3.67;;;2.65;;
12151;SDS011;6139;51.274;7.128;2022-07-31T00:34:33;3.35;;;2.83;;
12151;SDS011;6139;51.274;7.128;2022-07-31T00:35:35;3.08;;;2.67;;
12151;SDS011;6139;51.274;7.128;2022-07-31T00:36:37;2.80;;;2.53;;
12151;SDS011;6139;51.274;7.128;2022-07-31T00:37:39;2.90;;;2.20;;
12151;SDS011;6139;51.274;7.128;2022-07-31T00:38:40;4.05;;;2.70;;
12151;SDS011;6139;51.274;7.128;2022-07-31T00:39:42;2.75;;;2.50;;
12151;SDS011;6139;51.274;7.128;2022-07-31T00:40:44;5.07;;;2.70;;
12151;SDS011;6139;51.274;7.128;2022-07-31T00:41:48;3.00;;;2.70;;
12151;SDS011;6139;51.274;7.128;2022-07-31T00:42:50;4.90;;;3.00;;
12151;SDS011;6139;51.274;7.128;2022-07-31T00:43:52;3.30;;;2.60;;
12151;SDS011;6139;51.274;7.128;2022-07-31T00:44:53;4.10;;;2.65;;
12151;SDS011;6139;51.274;7.128;2022-07-31T00:45:55;3.30;;;2.83;;
12151;SDS011;6139;51.274;7.128;2022-07-31T00:46:57;4.13;;;2.50;;
12151;SDS011;6139;51.274;7.128;2022-07-31T00:47:59;3.15;;;2.58;;
12151;SDS011;6139;51.274;7.128;2022-07-31T00:49:03;3.78;;;2.72;;
12151;SDS011;6139;51.274;7.128;2022-07-31T00:50:07;6.50;;;3.00;;
12151;SDS011;6139;51.274;7.128;2022-07-31T00:51:09;3.70;;;2.40;;
12151;SDS011;6139;51.274;7.128;2022-07-31T00:52:11;3.53;;;2.80;;
12151;SDS011;6139;51.274;7.128;2022-07-31T00:53:12;3.05;;;2.67;;
12151;SDS011;6139;51.274;7.128;2022-07-31T00:54:14;3.53;;;2.60;;
12151;SDS011;6139;51.274;7.128;2022-07-31T00:55:16;3.33;;;2.50;;
12151;SDS011;6139;51.274;7.128;2022-07-31T00:56:18;3.90;;;2.55;;
12151;SDS011;6139;51.274;7.128;2022-07-31T00:57:20;3.67;;;2.88;;
12151;SDS011;6139;51.274;7.128;2022-07-31T00:58:22;3.63;;;2.70;;
12151;SDS011;6139;51.274;7.128;2022-07-31T00:59:24;3.60;;;2.55;;
12151;SDS011;6139;51.274;7.128;2022-07-31T01:00:27;3.72;;;2.90;;
12151;SDS011;6139;51.274;7.128;2022-07-31T01:01:29;2.75;;;2.38;;
12151;SDS011;6139;51.274;7.128;2022-07-31T01:02:31;3.00;;;2.30;;
12151;SDS011;6139;51.274;7.128;2022-07-31T01:03:32;3.45;;;2.75;;
12151;SDS011;6139;51.274;7.128;2022-07-31T01:04:35;4.82;;;2.58;;
12151;SDS011;6139;51.274;7.128;2022-07-31T01:05:36;5.13;;;2.40;;
12151;SDS011;6139;51.274;7.128;2022-07-31T01:06:38;2.95;;;2.65;;
12151;SDS011;6139;51.274;7.128;2022-07-31T01:07:39;4.90;;;2.65;;
12151;SDS011;6139;51.274;7.128;2022-07-31T01:08:41;4.93;;;2.67;;
12151;SDS011;6139;51.274;7.128;2022-07-31T01:09:42;6.75;;;2.53;;
12151;SDS011;6139;51.274;7.128;2022-07-31T01:10:51;2.80;;;2.35;;
12151;SDS011;6139;51.274;7.128;2022-07-31T01:11:56;3.75;;;2.33;;
12151;SDS011;6139;51.274;7.128;2022-07-31T01:13:06;3.55;;;2.47;;
12151;SDS011;6139;51.274;7.128;2022-07-31T01:14:09;4.88;;;2.65;;
12151;SDS011;6139;51.274;7.128;2022-07-31T01:15:13;3.13;;;2.40;;
12151;SDS011;6139;51.274;7.128;2022-07-31T01:16:16;2.80;;;2.30;;
12151;SDS011;6139;51.274;7.128;2022-07-31T01:17:19;3.33;;;2.63;;
12151;SDS011;6139;51.274;7.128;2022-07-31T01:18:22;3.30;;;2.40;;
12151;SDS011;6139;51.274;7.128;2022-07-31T01:19:28;4.85;;;3.08;;
12151;SDS011;6139;51.274;7.128;2022-07-31T01:20:31;3.72;;;2.60;;
12151;SDS011;6139;51.274;7.128;2022-07-31T01:21:35;5.05;;;2.58;;
12151;SDS011;6139;51.274;7.128;2022-07-31T01:22:44;3.60;;;2.50;;
12151;SDS011;6139;51.274;7.128;2022-07-31T01:24:06;2.53;;;2.28;;
12151;SDS011;6139;51.274;7.128;2022-07-31T01:25:53;3.42;;;2.70;;
12151;SDS011;6139;51.274;7.128;2022-07-31T01:27:24;2.97;;;2.50;;
12151;SDS011;6139;51.274;7.128;2022-07-31T01:30:02;2.90;;;2.50;;
12151;SDS011;6139;51.274;7.128;2022-07-31T01:31:08;4.78;;;2.30;;
12151;SDS011;6139;51.274;7.128;2022-07-31T01:34:15;3.63;;;2.60;;
12151;SDS011;6139;51.274;7.128;2022-07-31T01:35:24;5.10;;;2.45;;
12151;SDS011;6139;51.274;7.128;2022-07-31T01:36:28;3.42;;;2.50;;
12151;SDS011;6139;51.274;7.128;2022-07-31T01:37:35;5.55;;;2.72;;
12151;SDS011;6139;51.274;7.128;2022-07-31T01:38:43;3.05;;;2.28;;
12151;SDS011;6139;51.274;7.128;2022-07-31T01:39:49;3.53;;;2.30;;
12151;SDS011;6139;51.274;7.128;2022-07-31T01:40:53;2.95;;;2.38;;
12151;SDS011;6139;51.274;7.128;2022-07-31T01:41:57;3.13;;;2.63;;
12151;SDS011;6139;51.274;7.128;2022-07-31T01:43:04;3.85;;;2.50;;
12151;SDS011;6139;51.274;7.128;2022-07-31T01:44:08;2.70;;;2.05;;
12151;SDS011;6139;51.274;7.128;2022-07-31T01:45:13;3.05;;;2.28;;
12151;SDS011;6139;51.274;7.128;2022-07-31T01:46:15;3.95;;;2.40;;
12151;SDS011;6139;51.274;7.128;2022-07-31T01:47:20;2.90;;;2.45;;
12151;SDS011;6139;51.274;7.128;2022-07-31T01:48:23;3.97;;;2.90;;
12151;SDS011;6139;51.274;7.128;2022-07-31T01:49:26;2.90;;;2.60;;
12151;SDS011;6139;51.274;7.128;2022-07-31T01:50:29;3.05;;;2.60;;
12151;SDS011;6139;51.274;7.128;2022-07-31T01:51:32;3.92;;;2.40;;
12151;SDS011;6139;51.274;7.128;2022-07-31T01:52:35;4.72;;;2.60;;
12151;SDS011;6139;51.274;7.128;2022-07-31T01:53:40;3.75;;;2.22;;
12151;SDS011;6139;51.274;7.128;2022-07-31T01:54:44;2.65;;;2.45;;
12151;SDS011;6139;51.274;7.128;2022-07-31T01:55:48;3.05;;;2.50;;
12151;SDS011;6139;51.274;7.128;2022-07-31T01:56:53;2.85;;;2.30;;
12151;SDS011;6139;51.274;7.128;2022-07-31T01:57:58;2.90;;;2.60;;
12151;SDS011;6139;51.274;7.128;2022-07-31T01:59:01;2.50;;;2.30;;
12151;SDS011;6139;51.274;7.128;2022-07-31T02:00:17;2.42;;;2.22;;
12151;SDS011;6139;51.274;7.128;2022-07-31T02:01:21;3.03;;;2.63;;
12151;SDS011;6139;51.274;7.128;2022-07-31T02:02:26;3.55;;;2.65;;
12151;SDS011;6139;51.274;7.128;2022-07-31T02:03:30;2.75;;;2.40;;
12151;SDS011;6139;51.274;7.128;2022-07-31T02:04:33;3.05;;;2.45;;
12151;SDS011;6139;51.274;7.128;2022-07-31T02:05:36;2.33;;;2.13;;
12151;SDS011;6139;51.274;7.128;2022-07-31T02:06:39;4.07;;;2.40;;
12151;SDS011;6139;51.274;7.128;2022-07-31T02:07:43;4.35;;;2.60;;
12151;SDS011;6139;51.274;7.128;2022-07-31T02:08:46;4.15;;;2.55;;
12151;SDS011;6139;51.274;7.128;2022-07-31T02:09:51;2.88;;;2.60;;
12151;SDS011;6139;51.274;7.128;2022-07-31T02:10:56;3.05;;;2.60;;
12151;SDS011;6139;51.274;7.128;2022-07-31T02:11:59;3.75;;;2.40;;
12151;SDS011;6139;51.274;7.128;2022-07-31T02:13:02;6.43;;;2.50;;
12151;SDS011;6139;51.274;7.128;2022-07-31T02:14:05;3.17;;;2.30;;
12151;SDS011;6139;51.274;7.128;2022-07-31T02:15:10;2.63;;;2.33;;
12151;SDS011;6139;51.274;7.128;2022-07-31T02:16:17;2.58;;;2.38;;
12151;SDS011;6139;51.274;7.128;2022-07-31T02:17:24;2.97;;;2.25;;
12151;SDS011;6139;51.274;7.128;2022-07-31T02:18:45;2.78;;;2.22;;
12151;SDS011;6139;51.274;7.128;2022-07-31T02:19:53;2.90;;;2.40;;
12151;SDS011;6139;51.274;7.128;2022-07-31T02:20:59;2.83;;;2.40;;
12151;SDS011;6139;51.274;7.128;2022-07-31T02:22:01;3.65;;;2.30;;
12151;SDS011;6139;51.274;7.128;2022-07-31T02:23:02;3.25;;;2.30;;
12151;SDS011;6139;51.274;7.128;2022-07-31T02:24:05;2.55;;;2.35;;
12151;SDS011;6139;51.274;7.128;2022-07-31T02:25:06;4.07;;;2.35;;
12151;SDS011;6139;51.274;7.128;2022-07-31T02:26:09;3.25;;;2.47;;
12151;SDS011;6139;51.274;7.128;2022-07-31T02:27:11;3.55;;;2.40;;
12151;SDS011;6139;51.274;7.128;2022-07-31T02:28:16;3.08;;;2.47;;
12151;SDS011;6139;51.274;7.128;2022-07-31T02:29:20;2.33;;;2.17;;
12151;SDS011;6139;51.274;7.128;2022-07-31T02:30:24;2.50;;;2.20;;
12151;SDS011;6139;51.274;7.128;2022-07-31T02:31:30;2.65;;;2.42;;
12151;SDS011;6139;51.274;7.128;2022-07-31T02:32:34;3.85;;;3.08;;
12151;SDS011;6139;51.274;7.128;2022-07-31T02:33:37;3.33;;;2.63;;
12151;SDS011;6139;51.274;7.128;2022-07-31T02:34:40;2.58;;;2.38;;
12151;SDS011;6139;51.274;7.128;2022-07-31T02:35:43;3.40;;;2.55;;
12151;SDS011;6139;51.274;7.128;2022-07-31T02:36:49;3.50;;;2.58;;
12151;SDS011;6139;51.274;7.128;2022-07-31T02:37:55;3.13;;;2.70;;
12151;SDS011;6139;51.274;7.128;2022-07-31T02:38:57;3.35;;;2.70;;
12151;SDS011;6139;51.274;7.128;2022-07-31T02:40:00;3.08;;;2.17;;
12151;SDS011;6139;51.274;7.128;2022-07-31T02:41:02;3.08;;;2.10;;
12151;SDS011;6139;51.274;7.128;2022-07-31T02:42:05;4.40;;;2.33;;
12151;SDS011;6139;51.274;7.128;2022-07-31T02:43:07;2.60;;;2.40;;
12151;SDS011;6139;51.274;7.128;2022-07-31T02:44:12;3.58;;;2.47;;
12151;SDS011;6139;51.274;7.128;2022-07-31T02:45:14;4.00;;;2.13;;
12151;SDS011;6139;51.274;7.128;2022-07-31T02:46:16;4.40;;;2.40;;
12151;SDS011;6139;51.274;7.128;2022-07-31T02:47:19;3.10;;;2.08;;
12151;SDS011;6139;51.274;7.128;2022-07-31T02:48:23;2.95;;;2.40;;
12151;SDS011;6139;51.274;7.128;2022-07-31T02:49:27;2.45;;;2.10;;
12151;SDS011;6139;51.274;7.128;2022-07-31T02:50:29;3.08;;;2.30;;
12151;SDS011;6139;51.274;7.128;2022-07-31T02:51:31;3.22;;;2.30;;
12151;SDS011;6139;51.274;7.128;2022-07-31T02:52:34;2.20;;;2.00;;
12151;SDS011;6139;51.274;7.128;2022-07-31T02:53:35;2.63;;;2.42;;
12151;SDS011;6139;51.274;7.128;2022-07-31T02:54:43;2.95;;;2.38;;
12151;SDS011;6139;51.274;7.128;2022-07-31T02:55:44;4.00;;;2.45;;
12151;SDS011;6139;51.274;7.128;2022-07-31T02:56:47;3.67;;;2.42;;
12151;SDS011;6139;51.274;7.128;2022-07-31T02:57:48;2.85;;;2.60;;
12151;SDS011;6139;51.274;7.128;2022-07-31T02:58:50;5.43;;;2.63;;
12151;SDS011;6139;51.274;7.128;2022-07-31T02:59:56;3.80;;;2.58;;
12151;SDS011;6139;51.274;7.128;2022-07-31T03:00:59;2.72;;;2.28;;
12151;SDS011;6139;51.274;7.128;2022-07-31T03:02:01;2.60;;;2.40;;
12151;SDS011;6139;51.274;7.128;2022-07-31T03:03:06;4.07;;;2.65;;
12151;SDS011;6139;51.274;7.128;2022-07-31T03:04:08;2.42;;;2.22;;
12151;SDS011;6139;51.274;7.128;2022-07-31T03:05:10;3.47;;;2.22;;
12151;SDS011;6139;51.274;7.128;2022-07-31T03:06:11;3.10;;;2.22;;
12151;SDS011;6139;51.274;7.128;2022-07-31T03:07:14;5.82;;;2.67;;
12151;SDS011;6139;51.274;7.128;2022-07-31T03:08:17;3.80;;;2.28;;
12151;SDS011;6139;51.274;7.128;2022-07-31T03:09:23;4.28;;;2.60;;
12151;SDS011;6139;51.274;7.128;2022-07-31T03:10:36;4.15;;;2.55;;
12151;SDS011;6139;51.274;7.128;2022-07-31T03:11:38;4.47;;;2.45;;
12151;SDS011;6139;51.274;7.128;2022-07-31T03:12:41;3.65;;;2.65;;
12151;SDS011;6139;51.274;7.128;2022-07-31T03:13:44;4.28;;;2.42;;
12151;SDS011;6139;51.274;7.128;2022-07-31T03:14:48;2.95;;;2.40;;
12151;SDS011;6139;51.274;7.128;2022-07-31T03:15:49;2.80;;;2.50;;
12151;SDS011;6139;51.274;7.128;2022-07-31T03:16:52;2.67;;;2.47;;
12151;SDS011;6139;51.274;7.128;2022-07-31T03:17:54;2.85;;;2.45;;
12151;SDS011;6139;51.274;7.128;2022-07-31T03:19:07;2.60;;;2.38;;
12151;SDS011;6139;51.274;7.128;2022-07-31T03:20:09;3.42;;;2.28;;
12151;SDS011;6139;51.274;7.128;2022-07-31T03:21:12;3.13;;;2.60;;
12151;SDS011;6139;51.274;7.128;2022-07-31T03:22:14;3.78;;;2.17;;
12151;SDS011;6139;51.274;7.128;2022-07-31T03:23:17;2.53;;;2.13;;
12151;SDS011;6139;51.274;7.128;2022-07-31T03:24:26;5.20;;;2.80;;
12151;SDS011;6139;51.274;7.128;2022-07-31T03:25:28;2.50;;;2.30;;
12151;SDS011;6139;51.274;7.128;2022-07-31T03:26:31;4.03;;;2.40;;
12151;SDS011;6139;51.274;7.128;2022-07-31T03:27:32;3.70;;;2.80;;
12151;SDS011;6139;51.274;7.128;2022-07-31T03:28:35;3.10;;;2.65;;
12151;SDS011;6139;51.274;7.128;2022-07-31T03:29:36;7.03;;;2.70;;
12151;SDS011;6139;51.274;7.128;2022-07-31T03:30:38;2.90;;;2.42;;
12151;SDS011;6139;51.274;7.128;2022-07-31T03:31:40;2.80;;;2.40;;
12151;SDS011;6139;51.274;7.128;2022-07-31T03:32:42;3.30;;;2.60;;
12151;SDS011;6139;51.274;7.128;2022-07-31T03:33:43;3.50;;;2.58;;
12151;SDS011;6139;51.274;7.128;2022-07-31T03:34:48;3.25;;;2.60;;
12151;SDS011;6139;51.274;7.128;2022-07-31T03:35:50;3.00;;;2.60;;
12151;SDS011;6139;51.274;7.128;2022-07-31T03:36:52;3.53;;;2.70;;
12151;SDS011;6139;51.274;7.128;2022-07-31T03:37:55;3.15;;;2.60;;
12151;SDS011;6139;51.274;7.128;2022-07-31T03:38:56;3.28;;;2.50;;
12151;SDS011;6139;51.274;7.128;2022-07-31T03:40:06;3.38;;;2.75;;
12151;SDS011;6139;51.274;7.128;2022-07-31T03:41:08;4.00;;;2.70;;
12151;SDS011;6139;51.274;7.128;2022-07-31T03:42:10;3.00;;;2.50;;
12151;SDS011;6139;51.274;7.128;2022-07-31T03:43:13;4.13;;;2.90;;
12151;SDS011;6139;51.274;7.128;2022-07-31T03:44:17;3.40;;;2.50;;
12151;SDS011;6139;51.274;7.128;2022-07-31T03:45:19;2.85;;;2.42;;
12151;SDS011;6139;51.274;7.128;2022-07-31T03:46:22;3.38;;;2.90;;
12151;SDS011;6139;51.274;7.128;2022-07-31T03:47:25;3.72;;;2.50;;
12151;SDS011;6139;51.274;7.128;2022-07-31T03:48:27;2.80;;;2.50;;
12151;SDS011;6139;51.274;7.128;2022-07-31T03:49:30;2.78;;;2.58;;
12151;SDS011;6139;51.274;7.128;2022-07-31T03:50:35;2.90;;;2.60;;
12151;SDS011;6139;51.274;7.128;2022-07-31T03:51:37;3.83;;;2.50;;
12151;SDS011;6139;51.274;7.128;2022-07-31T03:52:39;4.43;;;2.45;;
12151;SDS011;6139;51.274;7.128;2022-07-31T03:53:40;4.40;;;2.58;;
12151;SDS011;6139;51.274;7.128;2022-07-31T03:54:49;3.67;;;2.58;;
12151;SDS011;6139;51.274;7.128;2022-07-31T03:55:52;3.65;;;2.38;;
12151;SDS011;6139;51.274;7.128;2022-07-31T03:56:56;3.10;;;2.40;;
12151;SDS011;6139;51.274;7.128;2022-07-31T03:57:57;3.00;;;2.30;;
12151;SDS011;6139;51.274;7.128;2022-07-31T03:59:01;2.92;;;2.10;;
12151;SDS011;6139;51.274;7.128;2022-07-31T04:00:03;3.30;;;2.63;;
12151;SDS011;6139;51.274;7.128;2022-07-31T04:01:16;3.30;;;2.80;;
12151;SDS011;6139;51.274;7.128;2022-07-31T04:02:18;3.53;;;2.40;;
12151;SDS011;6139;51.274;7.128;2022-07-31T04:03:28;2.60;;;2.40;;
12151;SDS011;6139;51.274;7.128;2022-07-31T04:05:06;2.95;;;2.20;;
12151;SDS011;6139;51.274;7.128;2022-07-31T04:06:11;3.00;;;2.40;;
12151;SDS011;6139;51.274;7.128;2022-07-31T04:07:12;3.17;;;2.30;;
12151;SDS011;6139;51.274;7.128;2022-07-31T04:08:14;2.55;;;2.20;;
12151;SDS011;6139;51.274;7.128;2022-07-31T04:09:17;4.13;;;2.60;;
12151;SDS011;6139;51.274;7.128;2022-07-31T04:10:22;2.55;;;2.35;;
12151;SDS011;6139;51.274;7.128;2022-07-31T04:11:23;4.28;;;2.63;;
12151;SDS011;6139;51.274;7.128;2022-07-31T04:12:25;2.85;;;2.53;;
12151;SDS011;6139;51.274;7.128;2022-07-31T04:13:26;2.80;;;2.60;;
12151;SDS011;6139;51.274;7.128;2022-07-31T04:14:28;4.18;;;2.70;;
12151;SDS011;6139;51.274;7.128;2022-07-31T04:15:30;3.45;;;2.70;;
12151;SDS011;6139;51.274;7.128;2022-07-31T04:16:32;3.05;;;2.50;;
12151;SDS011;6139;51.274;7.128;2022-07-31T04:17:33;2.67;;;2.47;;
12151;SDS011;6139;51.274;7.128;2022-07-31T04:18:35;4.47;;;2.45;;
12151;SDS011;6139;51.274;7.128;2022-07-31T04:19:37;3.03;;;2.40;;
12151;SDS011;6139;51.274;7.128;2022-07-31T04:20:39;3.03;;;2.30;;
12151;SDS011;6139;51.274;7.128;2022-07-31T04:21:41;3.72;;;2.72;;
12151;SDS011;6139;51.274;7.128;2022-07-31T04:22:43;2.50;;;2.30;;
12151;SDS011;6139;51.274;7.128;2022-07-31T04:23:54;3.63;;;2.50;;
12151;SDS011;6139;51.274;7.128;2022-07-31T04:25:14;3.03;;;2.53;;
12151;SDS011;6139;51.274;7.128;2022-07-31T04:26:37;3.50;;;2.33;;
12151;SDS011;6139;51.274;7.128;2022-07-31T04:27:38;3.42;;;2.58;;
12151;SDS011;6139;51.274;7.128;2022-07-31T04:28:41;2.88;;;2.55;;
12151;SDS011;6139;51.274;7.128;2022-07-31T04:29:42;3.45;;;2.60;;
12151;SDS011;6139;51.274;7.128;2022-07-31T04:30:45;3.47;;;2.70;;
12151;SDS011;6139;51.274;7.128;2022-07-31T04:31:46;3.10;;;2.45;;
12151;SDS011;6139;51.274;7.128;2022-07-31T04:32:56;3.88;;;2.90;;
12151;SDS011;6139;51.274;7.128;2022-07-31T04:33:59;2.88;;;2.50;;
12151;SDS011;6139;51.274;7.128;2022-07-31T04:35:02;6.20;;;2.70;;
12151;SDS011;6139;51.274;7.128;2022-07-31T04:36:04;3.38;;;3.00;;
12151;SDS011;6139;51.274;7.128;2022-07-31T04:37:08;3.35;;;2.90;;
12151;SDS011;6139;51.274;7.128;2022-07-31T04:38:09;4.80;;;2.65;;
12151;SDS011;6139;51.274;7.128;2022-07-31T04:39:13;3.70;;;2.70;;
12151;SDS011;6139;51.274;7.128;2022-07-31T04:40:14;5.90;;;2.85;;
12151;SDS011;6139;51.274;7.128;2022-07-31T04:41:17;4.20;;;2.72;;
12151;SDS011;6139;51.274;7.128;2022-07-31T04:42:18;3.90;;;2.70;;
12151;SDS011;6139;51.274;7.128;2022-07-31T04:43:20;3.70;;;2.80;;
12151;SDS011;6139;51.274;7.128;2022-07-31T04:44:22;3.72;;;2.33;;
12151;SDS011;6139;51.274;7.128;2022-07-31T04:45:33;2.60;;;2.40;;
12151;SDS011;6139;51.274;7.128;2022-07-31T04:46:34;3.58;;;2.67;;
12151;SDS011;6139;51.274;7.128;2022-07-31T04:47:37;3.92;;;3.13;;
12151;SDS011;6139;51.274;7.128;2022-07-31T04:48:38;4.38;;;2.90;;
12151;SDS011;6139;51.274;7.128;2022-07-31T04:49:41;3.03;;;2.58;;
12151;SDS011;6139;51.274;7.128;2022-07-31T04:50:42;3.85;;;3.00;;
12151;SDS011;6139;51.274;7.128;2022-07-31T04:51:45;3.25;;;2.60;;
12151;SDS011;6139;51.274;7.128;2022-07-31T04:52:49;3.03;;;2.72;;
12151;SDS011;6139;51.274;7.128;2022-07-31T04:53:51;3.20;;;2.90;;
12151;SDS011;6139;51.274;7.128;2022-07-31T04:54:54;8.60;;;2.60;;
12151;SDS011;6139;51.274;7.128;2022-07-31T04:55:56;3.33;;;2.55;;
12151;SDS011;6139;51.274;7.128;2022-07-31T04:57:16;3.22;;;2.92;;
12151;SDS011;6139;51.274;7.128;2022-07-31T04:58:19;3.70;;;3.05;;
12151;SDS011;6139;51.274;7.128;2022-07-31T04:59:21;2.90;;;2.70;;
12151;SDS011;6139;51.274;7.128;2022-07-31T05:00:23;3.22;;;2.92;;
12151;SDS011;6139;51.274;7.128;2022-07-31T05:01:26;3.83;;;2.67;;
12151;SDS011;6139;51.274;7.128;2022-07-31T05:02:28;3.33;;;2.60;;
12151;SDS011;6139;51.274;7.128;2022-07-31T05:03:30;4.82;;;3.10;;
12151;SDS011;6139;51.274;7.128;2022-07-31T05:04:31;6.35;;;3.00;;
12151;SDS011;6139;51.274;7.128;2022-07-31T05:05:34;2.60;;;2.40;;
12151;SDS011;6139;51.274;7.128;2022-07-31T05:06:35;4.82;;;2.60;;
12151;SDS011;6139;51.274;7.128;2022-07-31T05:07:38;3.97;;;3.13;;
12151;SDS011;6139;51.274;7.128;2022-07-31T05:08:54;3.30;;;2.70;;
12151;SDS011;6139;51.274;7.128;2022-07-31T05:09:55;2.90;;;2.70;;
12151;SDS011;6139;51.274;7.128;2022-07-31T05:10:58;4.25;;;3.17;;
12151;SDS011;6139;51.274;7.128;2022-07-31T05:12:17;3.78;;;2.97;;
12151;SDS011;6139;51.274;7.128;2022-07-31T05:13:20;3.08;;;2.70;;
12151;SDS011;6139;51.274;7.128;2022-07-31T05:14:22;3.30;;;3.00;;
12151;SDS011;6139;51.274;7.128;2022-07-31T05:15:24;3.33;;;2.72;;
12151;SDS011;6139;51.274;7.128;2022-07-31T05:16:26;3.50;;;2.97;;
12151;SDS011;6139;51.274;7.128;2022-07-31T05:17:29;3.75;;;2.83;;
12151;SDS011;6139;51.274;7.128;2022-07-31T05:18:47;3.88;;;2.60;;
12151;SDS011;6139;51.274;7.128;2022-07-31T05:20:12;4.40;;;2.80;;
12151;SDS011;6139;51.274;7.128;2022-07-31T05:21:32;6.22;;;3.15;;
12151;SDS011;6139;51.274;7.128;2022-07-31T05:22:54;3.65;;;2.95;;
12151;SDS011;6139;51.274;7.128;2022-07-31T05:24:29;3.58;;;2.75;;
12151;SDS011;6139;51.274;7.128;2022-07-31T05:25:40;4.05;;;2.90;;
12151;SDS011;6139;51.274;7.128;2022-07-31T05:26:41;5.05;;;2.92;;
12151;SDS011;6139;51.274;7.128;2022-07-31T05:27:44;5.10;;;2.65;;
12151;SDS011;6139;51.274;7.128;2022-07-31T05:28:46;7.30;;;2.63;;
12151;SDS011;6139;51.274;7.128;2022-07-31T05:29:49;4.95;;;3.20;;
12151;SDS011;6139;51.274;7.128;2022-07-31T05:30:51;3.97;;;3.15;;
12151;SDS011;6139;51.274;7.128;2022-07-31T05:31:52;4.05;;;3.08;;
12151;SDS011;6139;51.274;7.128;2022-07-31T05:32:55;4.60;;;3.10;;
12151;SDS011;6139;51.274;7.128;2022-07-31T05:33:58;4.47;;;2.88;;
12151;SDS011;6139;51.274;7.128;2022-07-31T05:35:00;4.13;;;3.13;;
12151;SDS011;6139;51.274;7.128;2022-07-31T05:36:01;3.72;;;2.85;;
12151;SDS011;6139;51.274;7.128;2022-07-31T05:37:04;2.90;;;2.60;;
12151;SDS011;6139;51.274;7.128;2022-07-31T05:38:09;5.25;;;3.38;;
12151;SDS011;6139;51.274;7.128;2022-07-31T05:39:24;5.30;;;3.08;;
12151;SDS011;6139;51.274;7.128;2022-07-31T05:40:47;3.42;;;2.83;;
12151;SDS011;6139;51.274;7.128;2022-07-31T05:42:07;4.38;;;3.00;;
12151;SDS011;6139;51.274;7.128;2022-07-31T05:43:21;5.45;;;3.30;;
12151;SDS011;6139;51.274;7.128;2022-07-31T05:44:36;3.50;;;3.00;;
12151;SDS011;6139;51.274;7.128;2022-07-31T05:45:38;3.30;;;3.00;;
12151;SDS011;6139;51.274;7.128;2022-07-31T05:46:39;3.63;;;3.30;;
12151;SDS011;6139;51.274;7.128;2022-07-31T05:47:41;2.92;;;2.63;;
12151;SDS011;6139;51.274;7.128;2022-07-31T05:48:43;2.90;;;2.70;;
12151;SDS011;6139;51.274;7.128;2022-07-31T05:49:45;3.60;;;3.30;;
12151;SDS011;6139;51.274;7.128;2022-07-31T05:50:47;4.03;;;3.30;;
12151;SDS011;6139;51.274;7.128;2022-07-31T05:51:50;3.95;;;2.70;;
12151;SDS011;6139;51.274;7.128;2022-07-31T05:52:53;3.53;;;2.72;;
12151;SDS011;6139;51.274;7.128;2022-07-31T05:54:14;4.13;;;2.92;;
12151;SDS011;6139;51.274;7.128;2022-07-31T05:55:36;3.40;;;3.10;;
12151;SDS011;6139;51.274;7.128;2022-07-31T05:56:54;3.85;;;3.35;;
12151;SDS011;6139;51.274;7.128;2022-07-31T05:58:10;4.47;;;2.95;;
12151;SDS011;6139;51.274;7.128;2022-07-31T05:59:12;3.85;;;3.00;;
12151;SDS011;6139;51.274;7.128;2022-07-31T06:00:14;3.67;;;2.97;;
12151;SDS011;6139;51.274;7.128;2022-07-31T06:01:17;4.43;;;3.35;;
12151;SDS011;6139;51.274;7.128;2022-07-31T06:02:20;4.32;;;3.45;;
12151;SDS011;6139;51.274;7.128;2022-07-31T06:03:38;5.22;;;3.60;;
12151;SDS011;6139;51.274;7.128;2022-07-31T06:04:47;3.10;;;2.80;;
12151;SDS011;6139;51.274;7.128;2022-07-31T06:05:49;5.00;;;3.15;;
12151;SDS011;6139;51.274;7.128;2022-07-31T06:06:51;6.47;;;3.45;;
12151;SDS011;6139;51.274;7.128;2022-07-31T06:07:52;3.40;;;3.00;;
12151;SDS011;6139;51.274;7.128;2022-07-31T06:08:55;5.38;;;3.08;;
12151;SDS011;6139;51.274;7.128;2022-07-31T06:09:57;5.47;;;3.03;;
12151;SDS011;6139;51.274;7.128;2022-07-31T06:10:58;4.28;;;3.35;;
12151;SDS011;6139;51.274;7.128;2022-07-31T06:12:02;4.85;;;3.22;;
12151;SDS011;6139;51.274;7.128;2022-07-31T06:13:03;5.18;;;3.25;;
12151;SDS011;6139;51.274;7.128;2022-07-31T06:14:06;3.20;;;2.80;;
12151;SDS011;6139;51.274;7.128;2022-07-31T06:15:26;3.97;;;3.22;;
12151;SDS011;6139;51.274;7.128;2022-07-31T06:16:28;3.10;;;2.80;;
12151;SDS011;6139;51.274;7.128;2022-07-31T06:17:30;4.85;;;3.50;;
12151;SDS011;6139;51.274;7.128;2022-07-31T06:18:31;3.65;;;3.15;;
12151;SDS011;6139;51.274;7.128;2022-07-31T06:19:33;5.10;;;3.17;;
12151;SDS011;6139;51.274;7.128;2022-07-31T06:20:35;3.83;;;3.25;;
12151;SDS011;6139;51.274;7.128;2022-07-31T06:21:37;5.82;;;3.10;;
12151;SDS011;6139;51.274;7.128;2022-07-31T06:22:38;3.65;;;3.35;;
12151;SDS011;6139;51.274;7.128;2022-07-31T06:23:42;5.63;;;3.80;;
12151;SDS011;6139;51.274;7.128;2022-07-31T06:25:03;4.68;;;3.78;;
12151;SDS011;6139;51.274;7.128;2022-07-31T06:26:05;3.85;;;3.47;;
12151;SDS011;6139;51.274;7.128;2022-07-31T06:27:08;5.15;;;3.75;;
12151;SDS011;6139;51.274;7.128;2022-07-31T06:28:11;5.38;;;4.07;;
12151;SDS011;6139;51.274;7.128;2022-07-31T06:29:14;4.32;;;3.60;;
12151;SDS011;6139;51.274;7.128;2022-07-31T06:30:16;4.53;;;3.50;;
12151;SDS011;6139;51.274;7.128;2022-07-31T06:31:18;4.97;;;3.42;;
12151;SDS011;6139;51.274;7.128;2022-07-31T06:32:20;6.22;;;3.70;;
12151;SDS011;6139;51.274;7.128;2022-07-31T06:33:22;6.05;;;3.70;;
12151;SDS011;6139;51.274;7.128;2022-07-31T06:34:23;5.10;;;3.70;;
12151;SDS011;6139;51.274;7.128;2022-07-31T06:35:25;4.15;;;3.53;;
12151;SDS011;6139;51.274;7.128;2022-07-31T06:36:47;3.53;;;3.22;;
12151;SDS011;6139;51.274;7.128;2022-07-31T06:37:51;4.05;;;3.20;;